Terminal Aerodrome Forecast
Issued by NWS Wilmington, OH

Current Version | Previous Version | Text Only | Print | Product List | Glossary Off
Versions: 1 2 3 4 5 6 7 8 9 10 11 12 13 14 15 16 17 18 19 20

000
FTUS41 KILN 170200 AAA
TAFILN
TAF AMD
KILN 170248Z 1703/1724 00000KT P6SM SCT030
     FM170600 00000KT 4SM BR SKC
     FM170800 00000KT 1SM BR SCT001
      TEMPO 1709/1712 1/4SM FG VV001
     FM171300 00000KT 2SM BR SCT001
     FM171400 VRB03KT P6SM SCT030
     FM171600 26004KT P6SM BKN035
     FM172300 34004KT P6SM BKN120=

USA.gov is the U.S. government's official web portal to all federal, state and local government web resources and services.